createdAt,value
2022-09-05T00:00:42.747Z,0.45
2022-09-05T00:06:11.288Z,0.38
2022-09-05T00:11:43.176Z,0.40
2022-09-05T00:17:12.682Z,0.50
2022-09-05T00:24:29.483Z,0.32
2022-09-05T00:28:36.572Z,0.52
2022-09-05T00:34:10.160Z,0.50
2022-09-05T00:39:37.357Z,0.82
2022-09-05T00:45:04.977Z,0.57
2022-09-05T00:50:49.154Z,0.60
2022-09-05T00:56:26.506Z,0.50
2022-09-05T01:01:55.359Z,0.60
2022-09-05T01:07:31.513Z,0.80
2022-09-05T01:13:08.026Z,0.60
2022-09-05T01:18:44.162Z,0.60
2022-09-05T01:24:31.995Z,0.50
2022-09-05T01:29:59.946Z,0.68
2022-09-05T01:36:03.508Z,0.40
2022-09-05T01:41:35.125Z,0.55
2022-09-05T01:47:08.272Z,0.60
2022-09-05T01:53:00.633Z,0.80
2022-09-05T01:58:34.501Z,0.63
2022-09-05T02:04:12.970Z,0.45
2022-09-05T02:09:50.553Z,0.80
2022-09-05T02:15:21.853Z,0.80
2022-09-05T02:20:49.913Z,0.60
2022-09-05T02:26:20.503Z,0.50
2022-09-05T02:31:49.083Z,0.60
2022-09-05T02:37:21.546Z,0.60
2022-09-05T02:45:21.235Z,0.50
2022-09-05T02:48:54.891Z,0.60
2022-09-05T02:57:40.796Z,0.40
2022-09-05T03:00:11.062Z,0.68
2022-09-05T03:11:41.385Z,0.70
2022-09-05T03:17:35.471Z,0.60
2022-09-05T03:23:25.363Z,0.50
2022-09-05T03:29:32.341Z,0.77
2022-09-05T03:35:35.440Z,0.80
2022-09-05T03:41:13.142Z,0.60
2022-09-05T03:47:12.110Z,0.43
2022-09-05T03:57:07.729Z,0.50
2022-09-05T03:59:03.564Z,1.10
2022-09-05T04:08:17.617Z,1.00
2022-09-05T04:10:29.114Z,1.25
2022-09-05T04:16:04.198Z,1.15
2022-09-05T04:21:32.115Z,1.10
2022-09-05T04:27:12.312Z,0.90
2022-09-05T04:32:46.515Z,1.10
2022-09-05T04:38:14.984Z,1.55
2022-09-05T04:43:43.304Z,1.08
2022-09-05T04:49:10.665Z,1.10
2022-09-05T04:54:38.257Z,0.77
2022-09-05T05:06:03.065Z,0.93
2022-09-05T05:06:13.324Z,1.05
2022-09-05T05:17:58.148Z,0.80
2022-09-05T05:18:16.249Z,1.00
2022-09-05T05:23:22.099Z,0.80
2022-09-05T05:28:54.324Z,1.30
2022-09-05T05:34:24.505Z,1.30
2022-09-05T05:39:53.000Z,1.98
2022-09-05T05:45:21.514Z,5.85
2022-09-05T05:50:53.386Z,11.60
2022-09-05T05:56:41.950Z,14.80
2022-09-05T06:02:58.725Z,9.73
2022-09-05T06:13:07.642Z,1.27
2022-09-05T06:15:19.410Z,0.95
2022-09-05T06:22:08.367Z,0.90
2022-09-05T06:27:29.051Z,0.77
2022-09-05T06:33:14.912Z,1.00
2022-09-05T06:38:53.476Z,0.57
2022-09-05T06:44:40.686Z,0.75
2022-09-05T06:50:24.070Z,1.00
2022-09-05T06:56:14.391Z,0.60
2022-09-05T07:02:01.088Z,0.80
2022-09-05T07:07:28.262Z,1.00
2022-09-05T07:12:58.750Z,0.50
2022-09-05T07:18:28.945Z,0.70
2022-09-05T07:24:06.256Z,0.40
2022-09-05T07:29:38.164Z,0.57
2022-09-05T07:35:04.358Z,0.50
2022-09-05T07:40:31.034Z,0.40
2022-09-05T07:46:06.793Z,0.40
2022-09-05T07:56:54.921Z,0.40
2022-09-05T07:57:31.289Z,0.30
2022-09-05T08:02:57.284Z,0.57
2022-09-05T08:08:22.886Z,0.35
2022-09-05T08:13:57.817Z,0.40
2022-09-05T08:19:58.862Z,0.35
2022-09-05T08:25:37.591Z,0.20
2022-09-05T08:31:22.355Z,0.43
2022-09-05T08:36:49.946Z,0.30
2022-09-05T08:42:26.732Z,0.30
2022-09-05T08:47:56.857Z,0.75
2022-09-05T08:53:45.903Z,0.52
2022-09-05T08:59:32.801Z,0.28
2022-09-05T09:05:14.488Z,0.30
2022-09-05T09:10:47.056Z,0.40
2022-09-05T09:16:13.936Z,0.95
2022-09-05T09:21:42.268Z,0.30
2022-09-05T09:27:10.823Z,0.45
2022-09-05T09:32:43.725Z,0.47
2022-09-05T09:38:34.946Z,0.30
2022-09-05T09:44:35.322Z,0.63
2022-09-05T09:50:18.900Z,0.10
2022-09-05T09:56:21.275Z,0.30
2022-09-05T10:01:52.739Z,0.43
2022-09-05T10:10:50.760Z,0.22
2022-09-05T10:13:54.861Z,0.30
2022-09-05T10:20:12.429Z,0.20
2022-09-05T10:25:52.968Z,0.25
2022-09-05T10:33:41.952Z,0.40
2022-09-05T10:37:05.888Z,0.35
2022-09-05T10:42:41.251Z,0.10
2022-09-05T10:48:24.965Z,0.22
2022-09-05T10:53:55.007Z,0.20
2022-09-05T11:02:20.025Z,0.13
2022-09-05T11:05:17.659Z,0.20
2022-09-05T11:10:48.252Z,0.20
2022-09-05T11:16:22.441Z,0.20
2022-09-05T11:22:05.261Z,0.25
2022-09-05T11:27:40.395Z,0.22
2022-09-05T11:39:43.840Z,0.20
2022-09-05T11:40:04.353Z,0.10
2022-09-05T11:45:26.844Z,0.63
2022-09-05T11:51:33.985Z,0.50
2022-09-05T11:57:33.091Z,0.10
2022-09-05T12:03:57.729Z,0.20
2022-09-05T12:09:08.291Z,0.13
2022-09-05T12:14:46.506Z,0.15
2022-09-05T12:20:24.981Z,0.20
2022-09-05T12:27:39.806Z,0.10
2022-09-05T12:33:24.284Z,0.20
2022-09-05T12:42:08.265Z,0.10
2022-09-05T12:44:22.919Z,0.20
2022-09-05T12:54:35.629Z,0.30
2022-09-05T13:03:03.376Z,0.45
2022-09-05T13:05:54.924Z,0.13
2022-09-05T13:14:47.120Z,0.40
2022-09-05T13:17:10.766Z,0.30
2022-09-05T13:22:38.823Z,0.40
2022-09-05T13:28:15.609Z,0.38
2022-09-05T13:38:06.305Z,0.17
2022-09-05T13:39:33.709Z,0.20
2022-09-05T13:44:59.870Z,0.20
2022-09-05T13:50:28.344Z,0.20
2022-09-05T13:55:57.542Z,0.20
2022-09-05T14:02:19.156Z,0.10
2022-09-05T14:08:18.114Z,0.20
2022-09-05T14:14:00.545Z,0.25
2022-09-05T14:19:43.203Z,0.32
2022-09-05T14:25:16.182Z,0.22
2022-09-05T14:31:51.836Z,0.30
2022-09-05T14:37:53.850Z,0.17
2022-09-05T14:42:21.494Z,0.30
2022-09-05T14:48:06.505Z,0.20
2022-09-05T15:02:42.987Z,0.30
2022-09-05T15:12:18.301Z,0.38
2022-09-05T15:15:18.499Z,0.70
2022-09-05T15:20:32.962Z,0.35
2022-09-05T15:25:47.075Z,0.30
2022-09-05T15:31:01.893Z,0.40
2022-09-05T15:36:08.524Z,0.52
2022-09-05T15:41:20.030Z,0.40
2022-09-05T15:46:36.923Z,0.20
2022-09-05T15:51:49.496Z,0.45
2022-09-05T15:56:57.699Z,0.50
2022-09-05T16:02:08.924Z,1.30
2022-09-05T16:10:45.522Z,1.58
2022-09-05T16:12:46.227Z,1.05
2022-09-05T16:23:16.224Z,1.13
2022-09-05T16:23:42.074Z,1.15
2022-09-05T16:28:49.866Z,0.80
2022-09-05T16:33:56.660Z,0.88
2022-09-05T16:39:04.118Z,0.95
2022-09-05T16:44:15.997Z,1.08
2022-09-05T16:49:38.959Z,1.35
2022-09-05T16:54:50.991Z,1.20
2022-09-05T16:59:56.887Z,0.93
2022-09-05T17:05:20.079Z,1.02
2022-09-05T17:10:28.205Z,0.88
2022-09-05T17:15:36.792Z,1.23
2022-09-05T17:20:45.056Z,0.98
2022-09-05T17:29:33.949Z,1.50
2022-09-05T17:37:37.202Z,1.23
2022-09-05T17:42:49.371Z,1.10
2022-09-05T17:47:58.332Z,1.40
2022-09-05T17:58:50.157Z,2.10
2022-09-05T18:04:08.539Z,3.10
2022-09-05T18:10:05.967Z,2.85
2022-09-05T18:16:04.135Z,2.63
2022-09-05T18:21:21.428Z,3.15
2022-09-05T18:26:30.212Z,2.25
2022-09-05T18:32:04.376Z,3.13
2022-09-05T18:38:02.755Z,2.85
2022-09-05T18:43:19.718Z,3.20
2022-09-05T18:48:30.030Z,2.83
2022-09-05T18:53:36.508Z,2.72
2022-09-05T18:58:54.138Z,3.28
2022-09-05T19:04:04.431Z,2.78
2022-09-05T19:09:14.188Z,3.30
2022-09-05T19:14:31.656Z,3.35
2022-09-05T19:20:34.017Z,3.83
2022-09-05T19:25:39.440Z,3.90
2022-09-05T19:36:54.921Z,3.72
2022-09-05T19:37:09.789Z,4.07
2022-09-05T19:47:43.634Z,3.40
2022-09-05T19:47:51.769Z,3.70
2022-09-05T19:52:51.771Z,3.40
2022-09-05T19:58:19.544Z,3.90
2022-09-05T20:03:27.367Z,2.75
2022-09-05T20:08:34.512Z,3.20
2022-09-05T20:13:40.078Z,2.60
2022-09-05T20:18:47.220Z,3.15
2022-09-05T20:23:54.334Z,3.58
2022-09-05T20:29:02.858Z,19.10
2022-09-05T20:34:19.225Z,39.55
2022-09-05T20:43:20.650Z,23.13
2022-09-05T20:45:09.523Z,33.20
2022-09-05T20:54:15.601Z,29.52
2022-09-05T20:55:49.989Z,27.98
2022-09-05T21:01:19.862Z,31.13
2022-09-05T21:06:33.794Z,29.40
2022-09-05T21:11:39.895Z,26.73
2022-09-05T21:16:47.818Z,21.55
2022-09-05T21:22:10.210Z,20.35
2022-09-05T21:27:17.872Z,21.13
2022-09-05T21:32:23.363Z,26.00
2022-09-05T21:37:33.143Z,22.43
2022-09-05T21:46:04.625Z,22.15
2022-09-05T21:48:04.458Z,24.42
2022-09-05T21:56:37.309Z,26.85
2022-09-05T21:59:16.302Z,21.75
2022-09-05T22:04:19.322Z,19.65
2022-09-05T22:09:27.063Z,16.38
2022-09-05T22:14:32.903Z,14.60
2022-09-05T22:19:38.339Z,13.98
2022-09-05T22:24:48.708Z,12.88
2022-09-05T22:29:57.525Z,15.63
2022-09-05T22:35:15.964Z,17.75
2022-09-05T22:40:31.365Z,21.65
2022-09-05T22:45:38.167Z,18.77
2022-09-05T22:50:44.337Z,20.80
2022-09-05T22:55:59.515Z,18.63
2022-09-05T23:01:06.870Z,16.33
2022-09-05T23:06:13.537Z,16.25
2022-09-05T23:11:20.568Z,16.15
2022-09-05T23:16:26.003Z,12.25
2022-09-05T23:21:31.427Z,10.07
2022-09-05T23:26:38.163Z,10.45
2022-09-05T23:32:02.075Z,9.60
2022-09-05T23:37:09.063Z,8.75
2022-09-05T23:42:34.362Z,9.68
2022-09-05T23:47:49.637Z,9.55
2022-09-05T23:52:55.040Z,8.00
2022-09-05T23:58:01.954Z,6.45
